Ar Rutbah, Iraq
Current Conditions -  °F | °C
As of 5:55 AM on Saturday 22 Nov 2014 (Local Time) from KQAJ Reporting Station
Haze Haze  
Wind Chill: 64°   Ceiling: Unl
Heat Index: 64°   Visibility: 5mi
Dew Point: 61°   Wind: 7mph
Humidity: 90%   Direction: 150°SSE
Pressure: 29.99"   Gusts: NA
Location:  33.04°N, 40.3°E
Report Text: KQAJ 220255Z 15006KT 8000 BR SCT120 18/16 A2999 RMK SLP151 60008 T01800163 55003
Loading
Personal Weather Stations






























Interactive Weather Map New forecast layout! Learn more

10-Day Weather Forecast

Advertisements
Track Severe Weather on mobile